sensor_id;sensor_type;location;lat;lon;timestamp;pressure;altitude;pressure_sealevel;temperature;humidity
23164;BME280;31429;42.674;23.350;2023-02-28T00:00:02;95201.41;;;7.29;100.00
23164;BME280;31429;42.674;23.350;2023-02-28T00:01:10;95208.91;;;7.35;100.00
23164;BME280;31429;42.674;23.350;2023-02-28T00:02:11;95213.28;;;7.28;100.00
23164;BME280;31429;42.674;23.350;2023-02-28T00:03:13;95209.84;;;7.29;100.00
23164;BME280;31429;42.674;23.350;2023-02-28T00:04:14;95218.31;;;7.31;100.00
23164;BME280;31429;42.674;23.350;2023-02-28T00:05:16;95221.78;;;7.26;100.00
23164;BME280;31429;42.674;23.350;2023-02-28T00:06:18;95227.63;;;7.31;100.00
23164;BME280;31429;42.674;23.350;2023-02-28T00:07:19;95226.03;;;7.25;100.00
23164;BME280;31429;42.674;23.350;2023-02-28T00:08:19;95215.06;;;7.22;100.00
23164;BME280;31429;42.674;23.350;2023-02-28T00:09:20;95217.47;;;7.29;100.00
23164;BME280;31429;42.674;23.350;2023-02-28T00:10:23;95210.78;;;7.24;100.00
23164;BME280;31429;42.674;23.350;2023-02-28T00:11:24;95214.13;;;7.27;100.00
23164;BME280;31429;42.674;23.350;2023-02-28T00:12:25;95208.38;;;7.18;100.00
23164;BME280;31429;42.674;23.350;2023-02-28T00:13:26;95200.97;;;7.06;100.00
23164;BME280;31429;42.674;23.350;2023-02-28T00:14:27;95215.06;;;7.23;100.00
23164;BME280;31429;42.674;23.350;2023-02-28T00:15:27;95215.88;;;7.25;100.00
23164;BME280;31429;42.674;23.350;2023-02-28T00:16:28;95220.16;;;7.22;100.00
23164;BME280;31429;42.674;23.350;2023-02-28T00:17:28;95222.59;;;7.28;100.00
23164;BME280;31429;42.674;23.350;2023-02-28T00:18:31;95230.66;;;7.51;100.00
23164;BME280;31429;42.674;23.350;2023-02-28T00:19:31;95229.97;;;7.43;100.00
23164;BME280;31429;42.674;23.350;2023-02-28T00:20:32;95231.03;;;7.31;100.00
23164;BME280;31429;42.674;23.350;2023-02-28T00:21:32;95224.50;;;7.15;100.00
23164;BME280;31429;42.674;23.350;2023-02-28T00:22:34;95228.97;;;7.03;100.00
23164;BME280;31429;42.674;23.350;2023-02-28T00:23:35;95230.03;;;6.89;100.00
23164;BME280;31429;42.674;23.350;2023-02-28T00:24:36;95237.53;;;6.95;100.00
23164;BME280;31429;42.674;23.350;2023-02-28T00:25:36;95240.69;;;7.10;100.00
23164;BME280;31429;42.674;23.350;2023-02-28T00:26:37;95249.16;;;7.12;100.00
23164;BME280;31429;42.674;23.350;2023-02-28T00:27:38;95243.25;;;7.10;100.00
23164;BME280;31429;42.674;23.350;2023-02-28T00:28:39;95243.19;;;7.14;100.00
23164;BME280;31429;42.674;23.350;2023-02-28T00:29:40;95231.66;;;6.93;100.00
23164;BME280;31429;42.674;23.350;2023-02-28T00:30:41;95239.41;;;6.86;100.00
23164;BME280;31429;42.674;23.350;2023-02-28T00:31:41;95241.06;;;6.88;100.00
23164;BME280;31429;42.674;23.350;2023-02-28T00:32:42;95242.63;;;6.95;100.00
23164;BME280;31429;42.674;23.350;2023-02-28T00:33:44;95244.34;;;6.95;100.00
23164;BME280;31429;42.674;23.350;2023-02-28T00:34:45;95242.66;;;6.92;100.00
23164;BME280;31429;42.674;23.350;2023-02-28T00:35:45;95235.97;;;6.88;100.00
23164;BME280;31429;42.674;23.350;2023-02-28T00:36:46;95237.03;;;6.75;100.00
23164;BME280;31429;42.674;23.350;2023-02-28T00:37:49;95233.72;;;6.72;100.00
23164;BME280;31429;42.674;23.350;2023-02-28T00:38:50;95238.47;;;6.90;100.00
23164;BME280;31429;42.674;23.350;2023-02-28T00:39:50;95245.91;;;7.04;100.00
23164;BME280;31429;42.674;23.350;2023-02-28T00:40:51;95251.03;;;7.01;100.00
23164;BME280;31429;42.674;23.350;2023-02-28T00:41:51;95241.81;;;6.95;100.00
23164;BME280;31429;42.674;23.350;2023-02-28T00:42:52;95236.75;;;6.93;100.00
23164;BME280;31429;42.674;23.350;2023-02-28T00:43:53;95230.84;;;6.91;100.00
23164;BME280;31429;42.674;23.350;2023-02-28T00:44:53;95236.06;;;6.82;100.00
23164;BME280;31429;42.674;23.350;2023-02-28T00:45:54;95230.19;;;6.80;100.00
23164;BME280;31429;42.674;23.350;2023-02-28T00:46:55;95225.91;;;6.82;100.00
23164;BME280;31429;42.674;23.350;2023-02-28T00:47:56;95218.34;;;6.79;100.00
23164;BME280;31429;42.674;23.350;2023-02-28T00:48:58;95216.66;;;6.78;100.00
23164;BME280;31429;42.674;23.350;2023-02-28T00:49:59;95215.03;;;6.73;100.00
23164;BME280;31429;42.674;23.350;2023-02-28T00:51:00;95218.47;;;6.72;100.00
23164;BME280;31429;42.674;23.350;2023-02-28T00:52:01;95210.91;;;6.67;100.00
23164;BME280;31429;42.674;23.350;2023-02-28T00:53:03;95214.19;;;6.75;100.00
23164;BME280;31429;42.674;23.350;2023-02-28T00:54:03;95218.34;;;6.79;100.00
23164;BME280;31429;42.674;23.350;2023-02-28T00:55:04;95219.59;;;7.06;100.00
23164;BME280;31429;42.674;23.350;2023-02-28T00:56:06;95219.66;;;7.03;100.00
23164;BME280;31429;42.674;23.350;2023-02-28T00:57:06;95223.13;;;6.96;100.00
23164;BME280;31429;42.674;23.350;2023-02-28T00:58:07;95222.56;;;6.80;100.00
23164;BME280;31429;42.674;23.350;2023-02-28T00:59:08;95214.19;;;6.75;100.00
23164;BME280;31429;42.674;23.350;2023-02-28T01:00:09;95213.47;;;6.66;100.00
23164;BME280;31429;42.674;23.350;2023-02-28T01:01:11;95221.63;;;6.84;100.00
23164;BME280;31429;42.674;23.350;2023-02-28T01:02:12;95228.88;;;7.07;100.00
23164;BME280;31429;42.674;23.350;2023-02-28T01:03:12;95219.75;;;6.97;100.00
23164;BME280;31429;42.674;23.350;2023-02-28T01:04:14;95226.81;;;6.78;100.00
23164;BME280;31429;42.674;23.350;2023-02-28T01:05:15;95225.31;;;6.65;100.00
23164;BME280;31429;42.674;23.350;2023-02-28T01:06:16;95228.81;;;6.60;100.00
23164;BME280;31429;42.674;23.350;2023-02-28T01:07:16;95230.56;;;6.55;100.00
23164;BME280;31429;42.674;23.350;2023-02-28T01:08:17;95230.38;;;6.68;100.00
23164;BME280;31429;42.674;23.350;2023-02-28T01:09:18;95235.50;;;6.65;100.00
23164;BME280;31429;42.674;23.350;2023-02-28T01:10:18;95237.28;;;6.59;100.00
23164;BME280;31429;42.674;23.350;2023-02-28T01:11:21;95221.34;;;6.49;100.00
23164;BME280;31429;42.674;23.350;2023-02-28T01:12:21;95220.63;;;6.41;100.00
23164;BME280;31429;42.674;23.350;2023-02-28T01:13:22;95226.47;;;6.46;100.00
23164;BME280;31429;42.674;23.350;2023-02-28T01:14:23;95221.31;;;6.51;100.00
23164;BME280;31429;42.674;23.350;2023-02-28T01:15:24;95221.22;;;6.57;100.00
23164;BME280;31429;42.674;23.350;2023-02-28T01:16:25;95222.25;;;6.45;100.00
23164;BME280;31429;42.674;23.350;2023-02-28T01:17:25;95218.91;;;6.42;100.00
23164;BME280;31429;42.674;23.350;2023-02-28T01:18:26;95212.91;;;6.47;100.00
23164;BME280;31429;42.674;23.350;2023-02-28T01:19:28;95211.19;;;6.48;100.00
23164;BME280;31429;42.674;23.350;2023-02-28T01:20:29;95221.41;;;6.46;100.00
23164;BME280;31429;42.674;23.350;2023-02-28T01:21:30;95224.81;;;6.44;100.00
23164;BME280;31429;42.674;23.350;2023-02-28T01:22:30;95224.03;;;6.40;100.00
23164;BME280;31429;42.674;23.350;2023-02-28T01:23:31;95219.75;;;6.44;100.00
23164;BME280;31429;42.674;23.350;2023-02-28T01:24:32;95215.44;;;6.49;100.00
23164;BME280;31429;42.674;23.350;2023-02-28T01:25:34;95217.88;;;6.53;100.00
23164;BME280;31429;42.674;23.350;2023-02-28T01:26:35;95206.03;;;6.54;100.00
23164;BME280;31429;42.674;23.350;2023-02-28T01:27:36;95209.50;;;6.50;100.00
23164;BME280;31429;42.674;23.350;2023-02-28T01:28:36;95209.59;;;6.42;100.00
23164;BME280;31429;42.674;23.350;2023-02-28T01:29:37;95212.97;;;6.44;100.00
23164;BME280;31429;42.674;23.350;2023-02-28T01:30:38;95210.44;;;6.44;100.00
23164;BME280;31429;42.674;23.350;2023-02-28T01:31:38;95217.22;;;6.42;100.00
23164;BME280;31429;42.674;23.350;2023-02-28T01:32:39;95214.72;;;6.39;100.00
23164;BME280;31429;42.674;23.350;2023-02-28T01:33:40;95219.78;;;6.39;100.00
23164;BME280;31429;42.674;23.350;2023-02-28T01:34:42;95208.91;;;6.31;100.00
23164;BME280;31429;42.674;23.350;2023-02-28T01:35:43;95209.00;;;6.25;100.00
23164;BME280;31429;42.674;23.350;2023-02-28T01:36:43;95215.84;;;6.20;100.00
23164;BME280;31429;42.674;23.350;2023-02-28T01:37:44;95213.38;;;6.15;100.00
23164;BME280;31429;42.674;23.350;2023-02-28T01:38:45;95217.59;;;6.13;100.00
23164;BME280;31429;42.674;23.350;2023-02-28T01:39:46;95220.19;;;6.12;100.00
23164;BME280;31429;42.674;23.350;2023-02-28T01:40:47;95216.78;;;6.13;100.00
23164;BME280;31429;42.674;23.350;2023-02-28T01:41:48;95220.19;;;6.10;100.00
23164;BME280;31429;42.674;23.350;2023-02-28T01:42:48;95215.88;;;6.17;100.00
23164;BME280;31429;42.674;23.350;2023-02-28T01:44:03;95220.91;;;6.21;100.00
23164;BME280;31429;42.674;23.350;2023-02-28T01:45:18;95219.25;;;6.16;100.00
23164;BME280;31429;42.674;23.350;2023-02-28T01:46:19;95220.91;;;6.20;100.00
23164;BME280;31429;42.674;23.350;2023-02-28T01:47:20;95216.63;;;6.23;100.00
23164;BME280;31429;42.674;23.350;2023-02-28T01:48:23;95222.59;;;6.19;100.00
23164;BME280;31429;42.674;23.350;2023-02-28T01:49:26;95217.69;;;6.09;100.00
23164;BME280;31429;42.674;23.350;2023-02-28T01:50:31;95218.59;;;6.02;100.00
23164;BME280;31429;42.674;23.350;2023-02-28T01:51:37;95227.16;;;5.95;100.00
23164;BME280;31429;42.674;23.350;2023-02-28T01:52:40;95216.28;;;5.85;100.00
23164;BME280;31429;42.674;23.350;2023-02-28T01:53:44;95223.06;;;5.86;100.00
23164;BME280;31429;42.674;23.350;2023-02-28T01:54:48;95229.06;;;5.74;100.00
23164;BME280;31429;42.674;23.350;2023-02-28T01:55:52;95221.50;;;5.71;100.00
23164;BME280;31429;42.674;23.350;2023-02-28T01:56:57;95222.41;;;5.67;100.00
23164;BME280;31429;42.674;23.350;2023-02-28T01:58:02;95224.03;;;5.71;100.00
23164;BME280;31429;42.674;23.350;2023-02-28T01:59:04;95232.53;;;5.69;100.00
23164;BME280;31429;42.674;23.350;2023-02-28T02:00:08;95227.47;;;5.67;100.00
23164;BME280;31429;42.674;23.350;2023-02-28T02:01:09;95223.09;;;5.80;100.00
23164;BME280;31429;42.674;23.350;2023-02-28T02:02:22;95218.75;;;5.93;100.00
23164;BME280;31429;42.674;23.350;2023-02-28T02:03:24;95216.91;;;6.04;100.00
23164;BME280;31429;42.674;23.350;2023-02-28T02:04:27;95227.94;;;6.01;100.00
23164;BME280;31429;42.674;23.350;2023-02-28T02:05:37;95226.25;;;6.00;100.00
23164;BME280;31429;42.674;23.350;2023-02-28T02:06:42;95224.44;;;6.10;100.00
23164;BME280;31429;42.674;23.350;2023-02-28T02:07:46;95222.06;;;5.96;100.00
23164;BME280;31429;42.674;23.350;2023-02-28T02:08:48;95219.66;;;5.86;100.00
23164;BME280;31429;42.674;23.350;2023-02-28T02:09:48;95222.19;;;5.87;100.00
23164;BME280;31429;42.674;23.350;2023-02-28T02:10:51;95220.50;;;5.85;100.00
23164;BME280;31429;42.674;23.350;2023-02-28T02:11:55;95224.00;;;5.74;100.00
23164;BME280;31429;42.674;23.350;2023-02-28T02:13:17;95221.53;;;5.70;100.00
23164;BME280;31429;42.674;23.350;2023-02-28T02:14:34;95218.19;;;5.65;100.00
23164;BME280;31429;42.674;23.350;2023-02-28T02:15:46;95224.88;;;5.70;100.00
23164;BME280;31429;42.674;23.350;2023-02-28T02:17:02;95214.66;;;5.76;100.00
23164;BME280;31429;42.674;23.350;2023-02-28T02:18:09;95216.28;;;5.84;100.00
23164;BME280;31429;42.674;23.350;2023-02-28T02:19:36;95218.72;;;5.96;100.00
23164;BME280;31429;42.674;23.350;2023-02-28T02:21:18;95212.97;;;5.77;100.00
23164;BME280;31429;42.674;23.350;2023-02-28T02:22:37;95203.78;;;5.68;100.00
23164;BME280;31429;42.674;23.350;2023-02-28T02:24:12;95207.19;;;5.67;100.00
23164;BME280;31429;42.674;23.350;2023-02-28T02:25:26;95200.47;;;5.63;100.00
23164;BME280;31429;42.674;23.350;2023-02-28T02:28:17;95172.75;;;5.48;100.00
23164;BME280;31429;42.674;23.350;2023-02-28T02:30:00;95207.22;;;5.64;100.00
23164;BME280;31429;42.674;23.350;2023-02-28T02:34:26;95213.31;;;5.50;100.00
23164;BME280;31429;42.674;23.350;2023-02-28T02:35:31;95217.50;;;5.51;100.00
23164;BME280;31429;42.674;23.350;2023-02-28T02:36:37;95219.13;;;5.56;100.00
23164;BME280;31429;42.674;23.350;2023-02-28T02:37:43;95220.94;;;5.45;100.00
23164;BME280;31429;42.674;23.350;2023-02-28T02:38:51;95220.16;;;5.42;100.00
23164;BME280;31429;42.674;23.350;2023-02-28T02:39:59;95217.50;;;5.51;100.00
23164;BME280;31429;42.674;23.350;2023-02-28T02:41:07;95227.56;;;5.61;100.00
23164;BME280;31429;42.674;23.350;2023-02-28T02:42:14;95218.19;;;5.66;100.00
23164;BME280;31429;42.674;23.350;2023-02-28T02:43:19;95232.63;;;5.61;100.00
23164;BME280;31429;42.674;23.350;2023-02-28T02:44:27;95231.78;;;5.61;100.00
23164;BME280;31429;42.674;23.350;2023-02-28T02:45:32;95231.78;;;5.61;100.00
23164;BME280;31429;42.674;23.350;2023-02-28T02:46:39;95225.91;;;5.56;100.00
23164;BME280;31429;42.674;23.350;2023-02-28T02:47:41;95233.41;;;5.66;100.00
23164;BME280;31429;42.674;23.350;2023-02-28T02:48:43;95229.06;;;5.74;100.00
23164;BME280;31429;42.674;23.350;2023-02-28T02:49:50;95224.16;;;5.59;100.00
23164;BME280;31429;42.674;23.350;2023-02-28T02:50:54;95222.53;;;5.55;100.00
23164;BME280;31429;42.674;23.350;2023-02-28T02:51:58;95227.59;;;5.57;100.00
23164;BME280;31429;42.674;23.350;2023-02-28T02:53:02;95232.66;;;5.58;100.00
23164;BME280;31429;42.674;23.350;2023-02-28T02:54:07;95230.03;;;5.67;100.00
23164;BME280;31429;42.674;23.350;2023-02-28T02:55:11;95230.03;;;5.66;100.00
23164;BME280;31429;42.674;23.350;2023-02-28T02:56:13;95240.19;;;5.63;100.00
23164;BME280;31429;42.674;23.350;2023-02-28T02:57:17;95237.69;;;5.61;100.00
23164;BME280;31429;42.674;23.350;2023-02-28T02:58:24;95227.53;;;5.64;100.00
23164;BME280;31429;42.674;23.350;2023-02-28T02:59:28;95231.69;;;5.68;100.00
23164;BME280;31429;42.674;23.350;2023-02-28T03:00:32;95231.78;;;5.61;100.00
23164;BME280;31429;42.674;23.350;2023-02-28T03:01:36;95238.47;;;5.66;100.00
23164;BME280;31429;42.674;23.350;2023-02-28T03:02:39;95242.69;;;5.66;100.00
23164;BME280;31429;42.674;23.350;2023-02-28T03:03:40;95244.28;;;5.74;100.00
23164;BME280;31429;42.674;23.350;2023-02-28T03:04:45;95241.66;;;5.87;100.00
23164;BME280;31429;42.674;23.350;2023-02-28T03:05:49;95246.56;;;6.00;100.00
23164;BME280;31429;42.674;23.350;2023-02-28T03:06:51;95249.00;;;6.08;100.00
23164;BME280;31429;42.674;23.350;2023-02-28T03:07:55;95248.91;;;6.14;100.00
23164;BME280;31429;42.674;23.350;2023-02-28T03:08:55;95259.81;;;6.22;100.00
23164;BME280;31429;42.674;23.350;2023-02-28T03:09:57;95251.25;;;6.29;100.00
23164;BME280;31429;42.674;23.350;2023-02-28T03:10:59;95252.84;;;6.38;100.00
23164;BME280;31429;42.674;23.350;2023-02-28T03:12:01;95258.75;;;6.38;100.00
23164;BME280;31429;42.674;23.350;2023-02-28T03:13:29;95258.75;;;6.38;100.00
23164;BME280;31429;42.674;23.350;2023-02-28T03:14:42;95263.03;;;6.34;100.00
23164;BME280;31429;42.674;23.350;2023-02-28T03:15:58;95257.09;;;6.34;100.00
23164;BME280;31429;42.674;23.350;2023-02-28T03:17:18;95265.44;;;6.44;100.00
23164;BME280;31429;42.674;23.350;2023-02-28T03:18:24;95260.25;;;6.51;100.00
23164;BME280;31429;42.674;23.350;2023-02-28T03:19:40;95268.69;;;6.55;100.00
23164;BME280;31429;42.674;23.350;2023-02-28T03:20:55;95265.28;;;6.54;100.00
23164;BME280;31429;42.674;23.350;2023-02-28T03:22:14;95260.28;;;6.48;100.00
23164;BME280;31429;42.674;23.350;2023-02-28T03:23:22;95264.53;;;6.49;100.00
23164;BME280;31429;42.674;23.350;2023-02-28T03:24:27;95261.22;;;6.43;100.00
23164;BME280;31429;42.674;23.350;2023-02-28T03:25:38;95268.06;;;6.38;100.00
23164;BME280;31429;42.674;23.350;2023-02-28T03:26:45;95275.66;;;6.39;100.00
23164;BME280;31429;42.674;23.350;2023-02-28T03:27:55;95274.03;;;6.35;100.00
23164;BME280;31429;42.674;23.350;2023-02-28T03:29:03;95264.06;;;6.21;100.00
23164;BME280;31429;42.674;23.350;2023-02-28T03:30:10;95268.22;;;6.25;100.00
23164;BME280;31429;42.674;23.350;2023-02-28T03:31:16;95272.38;;;6.31;100.00
23164;BME280;31429;42.674;23.350;2023-02-28T03:32:23;95275.75;;;6.31;100.00
23164;BME280;31429;42.674;23.350;2023-02-28T03:33:29;95276.59;;;6.32;100.00
23164;BME280;31429;42.674;23.350;2023-02-28T03:34:33;95279.13;;;6.35;100.00
23164;BME280;31429;42.674;23.350;2023-02-28T03:35:36;95282.47;;;6.37;100.00
23164;BME280;31429;42.674;23.350;2023-02-28T03:36:43;95276.59;;;6.32;100.00
23164;BME280;31429;42.674;23.350;2023-02-28T03:37:46;95279.84;;;6.42;100.00
23164;BME280;31429;42.674;23.350;2023-02-28T03:38:51;95276.53;;;6.38;100.00
23164;BME280;31429;42.674;23.350;2023-02-28T03:39:58;95280.78;;;6.36;100.00
23164;BME280;31429;42.674;23.350;2023-02-28T03:41:05;95280.88;;;6.30;100.00
23164;BME280;31429;42.674;23.350;2023-02-28T03:42:08;95279.19;;;6.27;100.00
23164;BME280;31429;42.674;23.350;2023-02-28T03:43:12;95280.00;;;6.31;100.00
23164;BME280;31429;42.674;23.350;2023-02-28T03:44:17;95271.53;;;6.30;100.00
23164;BME280;31429;42.674;23.350;2023-02-28T03:45:24;95278.22;;;6.36;100.00
23164;BME280;31429;42.674;23.350;2023-02-28T03:46:28;95287.44;;;6.45;100.00
23164;BME280;31429;42.674;23.350;2023-02-28T03:47:33;95277.16;;;6.54;100.00
23164;BME280;31429;42.674;23.350;2023-02-28T03:48:40;95277.22;;;6.49;100.00
23164;BME280;31429;42.674;23.350;2023-02-28T03:49:46;95282.38;;;6.43;100.00
23164;BME280;31429;42.674;23.350;2023-02-28T03:50:52;95281.53;;;6.44;100.00
23164;BME280;31429;42.674;23.350;2023-02-28T03:51:58;95280.63;;;6.48;100.00
23164;BME280;31429;42.674;23.350;2023-02-28T03:53:03;95279.72;;;6.52;100.00
23164;BME280;31429;42.674;23.350;2023-02-28T03:54:07;95287.25;;;6.58;100.00
23164;BME280;31429;42.674;23.350;2023-02-28T03:55:13;95290.72;;;6.51;100.00
23164;BME280;31429;42.674;23.350;2023-02-28T03:56:18;95288.31;;;6.42;100.00
23164;BME280;31429;42.674;23.350;2023-02-28T03:57:27;95289.19;;;6.41;100.00
23164;BME280;31429;42.674;23.350;2023-02-28T03:58:37;95290.81;;;6.45;100.00
23164;BME280;31429;42.674;23.350;2023-02-28T03:59:43;95287.50;;;6.38;100.00
23164;BME280;31429;42.674;23.350;2023-02-28T04:00:49;95284.06;;;6.44;100.00
23164;BME280;31429;42.674;23.350;2023-02-28T04:01:53;95285.69;;;6.48;100.00
23164;BME280;31429;42.674;23.350;2023-02-28T04:02:55;95290.88;;;6.39;100.00
23164;BME280;31429;42.674;23.350;2023-02-28T04:03:56;95298.44;;;6.45;100.00
23164;BME280;31429;42.674;23.350;2023-02-28T04:04:56;95299.31;;;6.43;100.00
23164;BME280;31429;42.674;23.350;2023-02-28T04:05:58;95298.44;;;6.45;100.00
23164;BME280;31429;42.674;23.350;2023-02-28T04:07:05;95286.53;;;6.47;100.00
23164;BME280;31429;42.674;23.350;2023-02-28T04:08:07;95288.09;;;6.57;100.00
23164;BME280;31429;42.674;23.350;2023-02-28T04:09:10;95287.25;;;6.58;100.00
23164;BME280;31429;42.674;23.350;2023-02-28T04:10:11;95293.81;;;6.73;100.00
23164;BME280;31429;42.674;23.350;2023-02-28T04:11:18;95288.72;;;6.73;100.00
23164;BME280;31429;42.674;23.350;2023-02-28T04:12:20;95291.88;;;6.88;100.00
23164;BME280;31429;42.674;23.350;2023-02-28T04:13:23;95286.84;;;6.85;100.00
23164;BME280;31429;42.674;23.350;2023-02-28T04:14:24;95289.66;;;6.69;100.00
23164;BME280;31429;42.674;23.350;2023-02-28T04:15:25;95279.56;;;6.61;100.00
23164;BME280;31429;42.674;23.350;2023-02-28T04:16:27;95287.22;;;6.60;100.00
23164;BME280;31429;42.674;23.350;2023-02-28T04:17:28;95283.91;;;6.55;100.00
23164;BME280;31429;42.674;23.350;2023-02-28T04:18:29;95288.19;;;6.51;100.00
23164;BME280;31429;42.674;23.350;2023-02-28T04:19:29;95289.72;;;6.63;100.00
23164;BME280;31429;42.674;23.350;2023-02-28T04:20:30;95279.72;;;6.52;100.00
23164;BME280;31429;42.674;23.350;2023-02-28T04:21:32;95278.22;;;6.38;100.00
23164;BME280;31429;42.674;23.350;2023-02-28T04:22:35;95277.53;;;6.25;100.00
23164;BME280;31429;42.674;23.350;2023-02-28T04:23:35;95276.84;;;6.14;100.00
23164;BME280;31429;42.674;23.350;2023-02-28T04:24:36;95282.69;;;6.19;100.00
23164;BME280;31429;42.674;23.350;2023-02-28T04:25:37;95282.59;;;6.25;100.00
23164;BME280;31429;42.674;23.350;2023-02-28T04:26:43;95279.03;;;6.40;100.00
23164;BME280;31429;42.674;23.350;2023-02-28T04:27:43;95281.66;;;6.35;100.00
23164;BME280;31429;42.674;23.350;2023-02-28T04:28:44;95284.16;;;6.38;100.00
23164;BME280;31429;42.674;23.350;2023-02-28T04:29:45;95278.28;;;6.33;100.00
23164;BME280;31429;42.674;23.350;2023-02-28T04:30:46;95285.88;;;6.33;100.00
23164;BME280;31429;42.674;23.350;2023-02-28T04:31:46;95283.25;;;6.41;100.00
23164;BME280;31429;42.674;23.350;2023-02-28T04:32:47;95290.91;;;6.38;100.00
23164;BME280;31429;42.674;23.350;2023-02-28T04:33:48;95285.84;;;6.38;100.00
23164;BME280;31429;42.674;23.350;2023-02-28T04:34:48;95285.84;;;6.36;100.00
23164;BME280;31429;42.674;23.350;2023-02-28T04:35:58;95286.41;;;6.58;100.00
23164;BME280;31429;42.674;23.350;2023-02-28T04:36:58;95284.22;;;6.30;100.00
23164;BME280;31429;42.674;23.350;2023-02-28T04:38:02;95286.03;;;6.24;100.00
23164;BME280;31429;42.674;23.350;2023-02-28T04:39:02;95272.53;;;6.20;100.00
23164;BME280;31429;42.674;23.350;2023-02-28T04:40:05;95290.19;;;6.29;100.00
23164;BME280;31429;42.674;23.350;2023-02-28T04:41:06;95293.56;;;6.30;100.00
23164;BME280;31429;42.674;23.350;2023-02-28T04:42:07;95284.38;;;6.21;100.00
23164;BME280;31429;42.674;23.350;2023-02-28T04:43:07;95296.97;;;6.27;100.00
23164;BME280;31429;42.674;23.350;2023-02-28T04:44:08;95292.00;;;6.21;100.00
23164;BME280;31429;42.674;23.350;2023-02-28T04:45:09;95289.41;;;6.23;100.00
23164;BME280;31429;42.674;23.350;2023-02-28T04:46:10;95290.31;;;6.19;100.00
23164;BME280;31429;42.674;23.350;2023-02-28T04:47:11;95291.09;;;6.24;100.00
23164;BME280;31429;42.674;23.350;2023-02-28T04:48:12;95306.94;;;6.43;100.00
23164;BME280;31429;42.674;23.350;2023-02-28T04:49:13;95307.03;;;6.33;100.00
23164;BME280;31429;42.674;23.350;2023-02-28T04:50:14;95312.38;;;6.15;100.00
23164;BME280;31429;42.674;23.350;2023-02-28T04:51:16;95321.81;;;6.04;100.00
23164;BME280;31429;42.674;23.350;2023-02-28T04:52:17;95311.81;;;5.88;100.00
23164;BME280;31429;42.674;23.350;2023-02-28T04:53:19;95310.16;;;5.82;100.00
23164;BME280;31429;42.674;23.350;2023-02-28T04:54:20;95315.25;;;5.80;100.00
23164;BME280;31429;42.674;23.350;2023-02-28T04:55:20;95311.00;;;5.84;100.00
23164;BME280;31429;42.674;23.350;2023-02-28T04:56:21;95312.63;;;5.93;100.00
23164;BME280;31429;42.674;23.350;2023-02-28T04:57:22;95307.63;;;5.85;100.00
23164;BME280;31429;42.674;23.350;2023-02-28T04:58:23;95318.59;;;5.89;100.00
23164;BME280;31429;42.674;23.350;2023-02-28T04:59:24;95312.69;;;5.85;100.00
23164;BME280;31429;42.674;23.350;2023-02-28T05:00:24;95312.72;;;5.79;100.00
23164;BME280;31429;42.674;23.350;2023-02-28T05:01:27;95311.97;;;5.72;100.00
23164;BME280;31429;42.674;23.350;2023-02-28T05:02:27;95311.97;;;5.72;100.00
23164;BME280;31429;42.674;23.350;2023-02-28T05:03:28;95318.69;;;5.75;100.00
23164;BME280;31429;42.674;23.350;2023-02-28T05:04:29;95316.09;;;5.79;100.00
23164;BME280;31429;42.674;23.350;2023-02-28T05:05:29;95316.97;;;5.77;100.00
23164;BME280;31429;42.674;23.350;2023-02-28T05:06:32;95305.16;;;5.74;100.00
23164;BME280;31429;42.674;23.350;2023-02-28T05:07:33;95309.28;;;5.89;100.00
23164;BME280;31429;42.674;23.350;2023-02-28T05:08:35;95310.13;;;5.90;100.00
23164;BME280;31429;42.674;23.350;2023-02-28T05:09:35;95312.63;;;5.91;100.00
23164;BME280;31429;42.674;23.350;2023-02-28T05:10:36;95307.53;;;5.94;100.00
23164;BME280;31429;42.674;23.350;2023-02-28T05:11:37;95306.63;;;6.00;100.00
23164;BME280;31429;42.674;23.350;2023-02-28T05:12:39;95303.22;;;6.01;100.00
23164;BME280;31429;42.674;23.350;2023-02-28T05:13:39;95310.06;;;5.96;100.00
23164;BME280;31429;42.674;23.350;2023-02-28T05:14:40;95307.41;;;6.05;100.00
23164;BME280;31429;42.674;23.350;2023-02-28T05:15:40;95308.25;;;6.07;100.00
23164;BME280;31429;42.674;23.350;2023-02-28T05:16:41;95307.34;;;6.09;100.00
23164;BME280;31429;42.674;23.350;2023-02-28T05:17:43;95302.22;;;6.15;100.00
23164;BME280;31429;42.674;23.350;2023-02-28T05:18:44;95313.28;;;6.10;100.00
23164;BME280;31429;42.674;23.350;2023-02-28T05:19:44;95319.16;;;6.10;100.00
23164;BME280;31429;42.674;23.350;2023-02-28T05:20:45;95321.75;;;6.09;100.00
23164;BME280;31429;42.674;23.350;2023-02-28T05:21:50;95325.81;;;6.22;100.00
23164;BME280;31429;42.674;23.350;2023-02-28T05:22:51;95323.31;;;6.19;100.00
23164;BME280;31429;42.674;23.350;2023-02-28T05:23:55;95328.41;;;6.17;100.00
23164;BME280;31429;42.674;23.350;2023-02-28T05:24:56;95322.44;;;6.20;100.00
23164;BME280;31429;42.674;23.350;2023-02-28T05:25:57;95319.84;;;6.24;100.00
23164;BME280;31429;42.674;23.350;2023-02-28T05:26:57;95322.31;;;6.32;100.00
23164;BME280;31429;42.674;23.350;2023-02-28T05:27:58;95330.84;;;6.25;100.00
23164;BME280;31429;42.674;23.350;2023-02-28T05:28:59;95323.25;;;6.22;100.00
23164;BME280;31429;42.674;23.350;2023-02-28T05:30:00;95320.75;;;6.20;100.00
23164;BME280;31429;42.674;23.350;2023-02-28T05:31:04;95333.38;;;6.26;100.00
23164;BME280;31429;42.674;23.350;2023-02-28T05:32:04;95324.03;;;6.28;100.00
23164;BME280;31429;42.674;23.350;2023-02-28T05:33:05;95327.25;;;6.44;100.00
23164;BME280;31429;42.674;23.350;2023-02-28T05:34:06;95328.97;;;6.39;100.00
23164;BME280;31429;42.674;23.350;2023-02-28T05:35:07;95340.97;;;6.28;100.00
23164;BME280;31429;42.674;23.350;2023-02-28T05:36:08;95340.00;;;6.36;100.00
23164;BME280;31429;42.674;23.350;2023-02-28T05:37:11;95340.06;;;6.33;100.00